Time;durP1;ratioP1;P1;durP2;ratioP2;P2;SDS_P1;SDS_P2;PMS_P1;PMS_P2;Temp;Humidity;BMP_temperature;BMP_pressure;BME280_temperature;BME280_humidity;BME280_pressure;Samples;Min_cycle;Max_cycle;Signal;HPM_P1;HPM_P2
2022/03/12 00:00:30;;;;;;;13.38;7.07;;;8.40;62.00;;;;;;5053433;28;20387;-40
2022/03/12 00:02:57;;;;;;;12.10;6.07;;;8.40;61.80;;;;;;5053225;28;20476;-41
2022/03/12 00:05:25;;;;;;;11.80;6.28;;;8.40;61.40;;;;;;5052903;28;20124;-42
2022/03/12 00:07:51;;;;;;;11.52;5.75;;;8.30;61.00;;;;;;5053340;28;20424;-41
2022/03/12 00:10:21;;;;;;;12.13;6.50;;;8.40;61.60;;;;;;5053175;28;20045;-44
2022/03/12 00:12:47;;;;;;;10.90;5.93;;;8.40;61.00;;;;;;5052208;28;20048;-42
2022/03/12 00:15:14;;;;;;;11.10;5.82;;;8.40;61.00;;;;;;5053187;28;20045;-42
2022/03/12 00:17:44;;;;;;;11.38;6.18;;;8.40;60.10;;;;;;5051967;28;20119;-41
2022/03/12 00:20:12;;;;;;;12.90;6.47;;;8.40;60.50;;;;;;5050044;28;20124;-44
2022/03/12 00:22:45;;;;;;;10.48;6.40;;;8.40;60.70;;;;;;5053068;28;20123;-42
2022/03/12 00:25:13;;;;;;;13.25;6.72;;;8.40;61.10;;;;;;5052958;28;20116;-42
2022/03/12 00:27:39;;;;;;;9.35;5.82;;;8.30;61.00;;;;;;5052799;28;20041;-40
2022/03/12 00:30:06;;;;;;;10.60;6.45;;;8.30;60.50;;;;;;5052547;28;20669;-43
2022/03/12 00:32:36;;;;;;;11.63;6.10;;;8.30;61.10;;;;;;5052781;28;20091;-43
2022/03/12 00:35:03;;;;;;;12.07;6.07;;;8.30;60.90;;;;;;5052420;28;20092;-43
2022/03/12 00:37:29;;;;;;;10.82;6.38;;;8.30;61.00;;;;;;5052511;28;20132;-42
2022/03/12 00:39:55;;;;;;;11.98;6.32;;;8.30;60.80;;;;;;5052590;28;20133;-43
2022/03/12 00:42:21;;;;;;;12.13;6.47;;;8.30;60.80;;;;;;5052565;28;20029;-42
2022/03/12 00:44:47;;;;;;;12.23;6.32;;;8.40;61.00;;;;;;5052481;28;20373;-42
2022/03/12 00:47:13;;;;;;;12.48;6.50;;;8.20;60.40;;;;;;5050077;28;20392;-43
2022/03/12 00:49:38;;;;;;;12.98;6.65;;;8.20;60.30;;;;;;5052540;28;20048;-41
2022/03/12 00:52:04;;;;;;;9.15;6.10;;;8.30;61.50;;;;;;5052222;28;20105;-42
2022/03/12 00:54:30;;;;;;;12.55;6.82;;;8.20;60.70;;;;;;5051223;28;20390;-41
2022/03/12 00:56:56;;;;;;;11.00;6.85;;;8.20;60.90;;;;;;5052361;28;20033;-43
2022/03/12 00:59:22;;;;;;;10.18;6.10;;;8.20;61.00;;;;;;5051482;28;20040;-42
2022/03/12 01:01:47;;;;;;;12.10;6.47;;;8.20;61.10;;;;;;5052258;28;20431;-43
2022/03/12 01:04:13;;;;;;;12.18;6.43;;;8.20;61.00;;;;;;5052292;28;20365;-43
2022/03/12 01:06:40;;;;;;;13.25;6.53;;;8.10;61.50;;;;;;5067658;28;20067;-43
2022/03/12 01:09:06;;;;;;;12.88;5.90;;;8.10;61.50;;;;;;5052048;28;20040;-42
2022/03/12 01:11:34;;;;;;;13.70;6.35;;;8.10;60.90;;;;;;5052089;28;20132;-43
2022/03/12 01:14:00;;;;;;;12.43;6.10;;;8.20;61.30;;;;;;5051870;28;20041;-42
2022/03/12 01:16:26;;;;;;;10.13;5.97;;;8.00;61.70;;;;;;5052032;28;20495;-40
2022/03/12 01:18:51;;;;;;;11.93;6.35;;;8.00;60.70;;;;;;5049877;28;20037;-45
2022/03/12 01:21:19;;;;;;;10.90;6.15;;;8.10;60.40;;;;;;5051626;28;20037;-41
2022/03/12 01:23:47;;;;;;;9.63;5.63;;;8.00;60.90;;;;;;5051818;28;20065;-42
2022/03/12 01:26:14;;;;;;;12.77;5.70;;;8.00;60.50;;;;;;5051596;28;20033;-42
2022/03/12 01:28:41;;;;;;;11.45;6.00;;;8.00;61.30;;;;;;5051538;28;20135;-41
2022/03/12 01:31:06;;;;;;;9.60;5.90;;;8.10;61.70;;;;;;5050141;28;20074;-43
2022/03/12 01:33:33;;;;;;;11.73;6.50;;;8.00;62.00;;;;;;5051471;28;20036;-44
2022/03/12 01:35:59;;;;;;;11.68;6.30;;;8.00;61.60;;;;;;5049839;28;20052;-42
2022/03/12 01:38:55;;;;;;;11.82;6.55;;;8.00;62.00;;;;;;5050292;28;20480;-42
2022/03/12 01:41:27;;;;;;;11.10;6.05;;;7.90;62.00;;;;;;5049947;28;20404;-43
2022/03/12 01:43:54;;;;;;;10.77;5.93;;;7.90;61.90;;;;;;5051020;28;20076;-46
2022/03/12 01:46:34;;;;;;;11.65;6.30;;;7.90;61.90;;;;;;5051291;28;20053;-43
2022/03/12 01:49:04;;;;;;;11.95;6.50;;;7.90;62.70;;;;;;5051016;28;20045;-43
2022/03/12 01:51:30;;;;;;;11.00;5.88;;;7.90;62.90;;;;;;5051495;28;20045;-43
2022/03/12 01:53:56;;;;;;;10.43;6.47;;;7.90;63.70;;;;;;5051225;28;20048;-44
2022/03/12 01:56:27;;;;;;;10.30;6.25;;;7.90;62.70;;;;;;5051103;28;20162;-42
2022/03/12 01:58:54;;;;;;;10.32;6.50;;;7.90;62.00;;;;;;5050549;28;20492;-42
2022/03/12 02:01:20;;;;;;;9.30;5.97;;;7.90;62.50;;;;;;5051053;28;20037;-42
2022/03/12 02:03:47;;;;;;;11.98;5.93;;;7.80;62.80;;;;;;5051173;28;20048;-42
2022/03/12 02:06:19;;;;;;;10.10;6.13;;;7.80;62.70;;;;;;5050641;28;20094;-42
2022/03/12 02:08:49;;;;;;;10.07;6.07;;;7.90;62.70;;;;;;5050632;28;20044;-40
2022/03/12 02:11:25;;;;;;;9.30;6.05;;;7.80;63.00;;;;;;5050450;28;20076;-41
2022/03/12 02:13:58;;;;;;;9.85;6.07;;;7.80;63.50;;;;;;5050655;28;20071;-41
2022/03/12 02:16:25;;;;;;;10.82;6.13;;;7.80;62.70;;;;;;5050650;28;20838;-44
2022/03/12 02:18:51;;;;;;;10.45;5.93;;;7.80;62.90;;;;;;5050416;28;20044;-42
2022/03/12 02:21:41;;;;;;;10.82;6.70;;;7.80;62.90;;;;;;5050528;28;20034;-43
2022/03/12 02:24:17;;;;;;;13.55;6.40;;;7.70;64.10;;;;;;5050455;28;20029;-44
2022/03/12 02:26:44;;;;;;;13.98;6.18;;;7.80;63.50;;;;;;5050410;28;20037;-43
2022/03/12 02:29:18;;;;;;;12.15;6.13;;;7.80;63.40;;;;;;5050192;28;20544;-43
2022/03/12 02:31:51;;;;;;;;;;;7.70;64.50;;;;;;5050933;28;20380;-43
2022/03/12 02:34:23;;;;;;;10.15;6.25;;;7.70;63.50;;;;;;5082576;28;19928;-42
2022/03/12 02:36:53;;;;;;;12.70;6.32;;;7.70;64.20;;;;;;5050434;28;20037;-41
2022/03/12 02:39:20;;;;;;;10.82;6.47;;;7.70;64.20;;;;;;5050133;28;20037;-42
2022/03/12 02:41:50;;;;;;;13.52;6.53;;;7.80;64.00;;;;;;5050415;28;20206;-43
2022/03/12 02:44:22;;;;;;;11.90;5.90;;;7.80;64.00;;;;;;5050225;28;20384;-41
2022/03/12 02:47:26;;;;;;;9.85;6.38;;;6.90;64.10;;;;;;5050452;28;20056;-42
2022/03/12 02:49:56;;;;;;;12.98;6.43;;;7.80;64.30;;;;;;5050024;28;20057;-42
2022/03/12 02:52:23;;;;;;;9.95;6.07;;;7.80;63.00;;;;;;5050114;28;20076;-40
2022/03/12 02:54:50;;;;;;;12.43;6.38;;;7.80;63.60;;;;;;5049981;28;20088;-42
2022/03/12 02:57:23;;;;;;;9.65;6.40;;;7.80;63.80;;;;;;5050378;28;20033;-41
2022/03/12 02:59:52;;;;;;;11.32;5.70;;;7.80;63.90;;;;;;5049812;28;20146;-43
2022/03/12 03:02:23;;;;;;;12.00;6.50;;;7.80;63.70;;;;;;5050196;28;20116;-42
2022/03/12 03:04:49;;;;;;;13.75;6.55;;;7.90;63.50;;;;;;5050373;28;20867;-41
2022/03/12 03:07:15;;;;;;;11.15;6.50;;;7.80;64.90;;;;;;5049859;28;20079;-45
2022/03/12 03:09:41;;;;;;;11.07;6.75;;;7.80;64.40;;;;;;5050286;28;20059;-43
2022/03/12 03:12:09;;;;;;;10.05;5.93;;;7.80;64.50;;;;;;5050117;28;20532;-41
2022/03/12 03:14:38;;;;;;;11.88;6.75;;;7.80;64.50;;;;;;5050278;28;20049;-49
2022/03/12 03:17:05;;;;;;;12.45;6.75;;;7.80;65.40;;;;;;5051029;28;20045;-43
2022/03/12 03:19:32;;;;;;;11.43;6.43;;;7.80;65.00;;;;;;5054067;28;20045;-41
2022/03/12 03:21:58;;;;;;;9.57;5.72;;;7.80;64.60;;;;;;5053683;28;20044;-42
2022/03/12 03:24:26;;;;;;;11.48;6.28;;;7.90;65.10;;;;;;5053693;28;20129;-41
2022/03/12 03:26:57;;;;;;;12.20;7.05;;;7.80;64.20;;;;;;5054070;28;20025;-43
2022/03/12 03:29:31;;;;;;;13.73;6.45;;;7.80;65.00;;;;;;5053456;28;20393;-41
2022/03/12 03:32:01;;;;;;;12.60;6.78;;;7.80;65.50;;;;;;5053472;28;20124;-45
2022/03/12 03:34:28;;;;;;;10.55;6.50;;;7.80;65.80;;;;;;5053359;28;20057;-45
2022/03/12 03:36:55;;;;;;;14.15;6.82;;;7.80;66.00;;;;;;5053855;28;20102;-42
2022/03/12 03:39:21;;;;;;;9.63;6.15;;;7.80;66.30;;;;;;5053503;28;20045;-44
2022/03/12 03:41:47;;;;;;;12.63;6.40;;;7.80;67.40;;;;;;5053840;28;20427;-42
2022/03/12 03:44:13;;;;;;;13.15;6.75;;;7.80;67.70;;;;;;5053448;28;20040;-42
2022/03/12 03:46:39;;;;;;;13.40;6.88;;;7.80;69.40;;;;;;5051926;28;20071;-47
2022/03/12 03:49:05;;;;;;;10.90;6.80;;;7.80;70.00;;;;;;5052262;28;20119;-40
2022/03/12 03:51:33;;;;;;;10.80;6.47;;;7.70;71.10;;;;;;5053441;28;20124;-41
2022/03/12 03:53:58;;;;;;;11.20;6.45;;;7.70;71.20;;;;;;5053395;28;20095;-43
2022/03/12 03:56:24;;;;;;;11.65;6.32;;;7.70;71.00;;;;;;5051836;28;20438;-44
2022/03/12 03:58:50;;;;;;;13.07;7.10;;;7.70;72.40;;;;;;5052871;28;20041;-43
2022/03/12 04:01:22;;;;;;;12.40;6.65;;;7.70;72.60;;;;;;5053086;28;20040;-45
2022/03/12 04:03:48;;;;;;;12.40;6.90;;;7.70;75.70;;;;;;5053158;28;20041;-43
2022/03/12 04:06:20;;;;;;;11.65;7.03;;;7.70;74.90;;;;;;5053125;28;20489;-40
2022/03/12 04:08:46;;;;;;;12.68;6.95;;;7.60;74.60;;;;;;5053305;28;20472;-45
2022/03/12 04:11:21;;;;;;;14.25;6.75;;;7.60;76.10;;;;;;5053110;28;20060;-44
2022/03/12 04:13:49;;;;;;;11.73;6.88;;;7.60;76.60;;;;;;5051986;28;20088;-43
2022/03/12 04:16:17;;;;;;;13.82;7.05;;;7.50;77.30;;;;;;5033316;28;20076;-43
2022/03/12 04:18:46;;;;;;;13.52;7.25;;;7.60;77.70;;;;;;5052526;28;20044;-42
2022/03/12 04:21:14;;;;;;;11.98;7.47;;;7.50;79.00;;;;;;5051628;28;20037;-41
2022/03/12 04:23:44;;;;;;;13.40;7.32;;;7.50;81.90;;;;;;5052819;28;20036;-41
2022/03/12 04:26:10;;;;;;;11.85;7.28;;;7.50;81.40;;;;;;5052943;28;20045;-44
2022/03/12 04:28:37;;;;;;;12.02;7.15;;;7.50;85.00;;;;;;5052081;28;20033;-40
2022/03/12 04:31:05;;;;;;;11.30;7.28;;;7.40;84.20;;;;;;5052602;28;20056;-42
2022/03/12 04:33:32;;;;;;;12.60;7.65;;;7.40;89.10;;;;;;5051431;28;20449;-41
2022/03/12 04:35:59;;;;;;;13.48;7.70;;;7.30;90.00;;;;;;5051083;28;20045;-42
2022/03/12 04:38:25;;;;;;;11.35;7.18;;;7.30;91.10;;;;;;5051477;28;20500;-42
2022/03/12 04:40:55;;;;;;;11.65;7.38;;;7.30;92.40;;;;;;5051393;28;20367;-42
2022/03/12 04:43:23;;;;;;;12.77;7.45;;;7.20;92.90;;;;;;5051583;28;20047;-42
2022/03/12 04:45:49;;;;;;;13.75;7.65;;;7.20;93.40;;;;;;5051191;28;20123;-45
2022/03/12 04:48:17;;;;;;;13.50;7.20;;;7.10;95.50;;;;;;5051011;28;20071;-42
2022/03/12 04:50:43;;;;;;;12.07;7.32;;;7.10;96.90;;;;;;5051488;28;20044;-41
2022/03/12 04:53:09;;;;;;;12.57;7.28;;;7.10;97.80;;;;;;5050906;28;20059;-43
2022/03/12 04:55:38;;;;;;;12.35;7.32;;;7.00;98.10;;;;;;5049356;28;20056;-42
2022/03/12 04:58:04;;;;;;;12.82;7.55;;;6.60;98.10;;;;;;5050910;28;20041;-41
2022/03/12 05:00:31;;;;;;;14.32;8.30;;;7.00;97.80;;;;;;5050578;28;20048;-41
2022/03/12 05:03:08;;;;;;;16.35;8.20;;;7.00;98.20;;;;;;5051097;28;20428;-44
2022/03/12 05:05:40;;;;;;;13.40;7.18;;;7.00;97.00;;;;;;5050914;28;20032;-42
2022/03/12 05:08:09;;;;;;;13.27;8.00;;;7.00;96.80;;;;;;5032949;28;20036;-42
2022/03/12 05:10:36;;;;;;;12.15;7.70;;;7.00;96.70;;;;;;5050754;28;20059;-43
2022/03/12 05:13:02;;;;;;;14.95;7.60;;;7.00;96.70;;;;;;5051180;28;20087;-45
2022/03/12 05:15:37;;;;;;;11.68;7.68;;;7.00;96.50;;;;;;5050745;28;20473;-41
2022/03/12 05:18:08;;;;;;;13.57;7.72;;;7.10;96.00;;;;;;5050648;28;20075;-41
2022/03/12 05:20:36;;;;;;;10.77;7.47;;;7.10;95.90;;;;;;5050971;28;20382;-42
2022/03/12 05:23:03;;;;;;;13.70;7.63;;;7.10;96.10;;;;;;5050562;28;20032;-45
2022/03/12 05:25:30;;;;;;;13.75;8.05;;;7.20;94.80;;;;;;5050821;28;20045;-41
2022/03/12 05:27:57;;;;;;;12.85;7.63;;;7.20;95.00;;;;;;5050698;28;20377;-43
2022/03/12 05:30:23;;;;;;;14.77;8.30;;;7.20;94.20;;;;;;5050321;28;20091;-42
2022/03/12 05:32:50;;;;;;;14.23;7.70;;;7.30;95.30;;;;;;5050451;28;20032;-41
2022/03/12 05:35:19;;;;;;;12.68;7.55;;;7.20;94.10;;;;;;5027633;28;1101542;-43
2022/03/12 05:37:47;;;;;;;13.23;7.35;;;7.30;94.10;;;;;;5051321;28;20222;-43
2022/03/12 05:40:18;;;;;;;12.27;7.28;;;7.30;93.60;;;;;;5050538;28;20435;-40
2022/03/12 05:42:44;;;;;;;15.63;8.13;;;7.30;94.10;;;;;;5051522;28;20499;-43
2022/03/12 05:45:10;;;;;;;15.90;7.25;;;7.40;93.60;;;;;;5051462;28;20037;-41
2022/03/12 05:47:38;;;;;;;17.63;7.78;;;7.40;93.50;;;;;;5051206;28;20047;-43
2022/03/12 05:50:09;;;;;;;15.63;7.40;;;7.40;93.60;;;;;;5051359;28;20409;-42
2022/03/12 05:52:38;;;;;;;13.02;7.60;;;7.40;93.60;;;;;;5051058;28;20454;-43
2022/03/12 05:55:08;;;;;;;13.45;7.80;;;7.40;93.70;;;;;;5051364;28;20447;-43
2022/03/12 05:57:34;;;;;;;13.15;7.75;;;7.40;93.60;;;;;;5051160;28;20117;-41
2022/03/12 06:00:03;;;;;;;14.32;7.55;;;7.40;94.00;;;;;;5050560;28;20076;-43
2022/03/12 06:02:29;;;;;;;14.30;8.13;;;7.40;94.30;;;;;;5050819;28;20041;-43
2022/03/12 06:04:58;;;;;;;14.73;8.07;;;7.40;94.40;;;;;;5050830;28;20116;-44
2022/03/12 06:07:24;;;;;;;14.52;8.18;;;7.40;94.60;;;;;;5051100;28;20120;-44
2022/03/12 06:09:50;;;;;;;17.15;8.70;;;7.30;95.00;;;;;;5050685;28;20041;-41
2022/03/12 06:12:17;;;;;;;12.18;7.85;;;7.30;94.90;;;;;;5050523;28;20063;-43
2022/03/12 06:14:50;;;;;;;13.93;8.20;;;7.40;95.90;;;;;;5050702;28;20095;-43
2022/03/12 06:17:16;;;;;;;13.15;8.10;;;7.40;95.40;;;;;;5050932;28;20044;-42
2022/03/12 06:19:42;;;;;;;13.25;8.27;;;7.30;95.60;;;;;;5050686;28;20384;-40
2022/03/12 06:22:07;;;;;;;14.52;7.97;;;7.30;95.80;;;;;;5050431;28;20029;-41
2022/03/12 06:24:33;;;;;;;15.65;7.95;;;7.30;95.10;;;;;;5050622;28;20098;-45
2022/03/12 06:26:58;;;;;;;12.90;7.70;;;7.30;95.30;;;;;;5050562;28;20040;-41
2022/03/12 06:29:24;;;;;;;13.98;8.20;;;7.30;95.60;;;;;;5065342;28;20037;-44
2022/03/12 06:31:50;;;;;;;15.75;8.57;;;7.20;95.70;;;;;;5050648;28;20090;-43
2022/03/12 06:34:17;;;;;;;15.73;8.48;;;7.20;95.70;;;;;;5050006;28;20053;-42
2022/03/12 06:36:44;;;;;;;14.32;8.35;;;7.30;95.80;;;;;;5049039;28;20072;-42
2022/03/12 06:39:11;;;;;;;14.23;8.43;;;7.20;95.90;;;;;;5050317;28;20123;-41
2022/03/12 06:41:38;;;;;;;14.00;7.82;;;7.20;96.90;;;;;;5050548;28;20037;-43
2022/03/12 06:44:06;;;;;;;13.35;7.80;;;7.20;96.80;;;;;;5050376;28;20037;-42
2022/03/12 06:46:33;;;;;;;11.75;7.38;;;7.20;96.10;;;;;;5050183;28;20032;-41
2022/03/12 06:48:58;;;;;;;17.30;8.73;;;7.20;96.40;;;;;;5050140;28;20111;-42
2022/03/12 06:51:24;;;;;;;16.27;8.02;;;7.30;96.30;;;;;;5050076;28;20128;-42
2022/03/12 06:53:52;;;;;;;14.35;8.52;;;7.40;96.00;;;;;;5050043;28;20048;-43
2022/03/12 06:56:18;;;;;;;13.07;8.15;;;7.40;96.80;;;;;;5050600;28;20041;-42
2022/03/12 06:58:44;;;;;;;15.45;8.43;;;7.40;96.60;;;;;;5049709;28;20041;-43
2022/03/12 07:01:10;;;;;;;15.13;8.07;;;7.50;96.50;;;;;;5050130;28;20116;-43
2022/03/12 07:03:36;;;;;;;13.88;8.07;;;7.50;96.60;;;;;;5049960;28;20156;-42
2022/03/12 07:06:02;;;;;;;15.57;8.57;;;7.60;97.20;;;;;;5050267;28;20033;-41
2022/03/12 07:08:28;;;;;;;14.82;8.65;;;7.60;96.90;;;;;;5048268;28;20082;-42
2022/03/12 07:10:54;;;;;;;13.82;8.70;;;7.60;96.70;;;;;;5049914;28;20608;-42
2022/03/12 07:13:20;;;;;;;15.60;8.57;;;7.70;97.00;;;;;;5049887;28;20037;-44
2022/03/12 07:15:46;;;;;;;14.80;8.38;;;7.70;96.90;;;;;;5049788;28;20040;-41
2022/03/12 07:18:11;;;;;;;14.60;8.48;;;7.80;97.10;;;;;;5049824;28;20068;-42
2022/03/12 07:20:37;;;;;;;15.95;8.38;;;7.80;97.00;;;;;;5049815;28;20041;-47
2022/03/12 07:23:03;;;;;;;13.50;8.15;;;7.90;97.00;;;;;;5049917;28;20082;-45
2022/03/12 07:25:29;;;;;;;14.15;8.73;;;7.90;97.90;;;;;;5049744;28;20045;-41
2022/03/12 07:27:55;;;;;;;15.50;8.90;;;7.90;98.10;;;;;;5048230;28;20037;-43
2022/03/12 07:30:22;;;;;;;12.90;8.40;;;7.90;97.90;;;;;;5049510;28;20079;-43
2022/03/12 07:32:49;;;;;;;14.52;8.43;;;7.90;97.80;;;;;;5049745;28;20171;-44
2022/03/12 07:35:17;;;;;;;13.60;8.32;;;8.00;97.80;;;;;;5049533;28;20053;-40
2022/03/12 07:37:45;;;;;;;15.18;8.93;;;8.00;98.10;;;;;;5049703;28;20925;-43
2022/03/12 07:40:13;;;;;;;18.95;9.55;;;8.00;97.70;;;;;;5043049;28;20044;-43
2022/03/12 07:42:39;;;;;;;13.98;8.77;;;8.10;98.30;;;;;;5046448;28;20126;-42
2022/03/12 07:45:08;;;;;;;19.42;8.73;;;8.10;98.20;;;;;;5049295;28;20037;-40
2022/03/12 07:47:34;;;;;;;14.43;8.48;;;8.20;99.00;;;;;;5047722;28;20091;-42
2022/03/12 07:50:01;;;;;;;14.27;8.45;;;8.20;98.90;;;;;;5039345;28;20049;-43
2022/03/12 07:52:26;;;;;;;17.73;8.70;;;8.30;98.60;;;;;;5039550;28;20041;-43
2022/03/12 07:54:52;;;;;;;17.10;8.70;;;8.30;98.80;;;;;;5039802;28;20048;-44
2022/03/12 07:57:18;;;;;;;15.27;9.20;;;9.00;99.20;;;;;;5040718;28;20071;-40
2022/03/12 07:59:44;;;;;;;17.13;8.98;;;8.50;99.80;;;;;;5039411;28;20044;-45
2022/03/12 08:02:11;;;;;;;14.50;8.57;;;8.50;99.50;;;;;;5041768;28;20048;-43
2022/03/12 08:04:36;;;;;;;13.43;8.13;;;8.60;99.40;;;;;;5042473;28;20051;-44
2022/03/12 08:07:03;;;;;;;13.18;8.32;;;8.70;99.20;;;;;;5044204;28;20033;-42
2022/03/12 08:09:33;;;;;;;16.75;8.55;;;8.80;99.90;;;;;;5044713;28;20424;-42
2022/03/12 08:11:59;;;;;;;15.30;9.32;;;8.90;99.80;;;;;;5043590;28;20037;-45
2022/03/12 08:14:26;;;;;;;17.38;9.50;;;9.00;99.90;;;;;;5042956;28;20154;-44
2022/03/12 08:16:52;;;;;;;14.55;9.32;;;9.00;99.90;;;;;;5044644;28;20041;-43
2022/03/12 08:19:20;;;;;;;15.45;9.27;;;9.10;99.90;;;;;;5043618;28;20056;-41
2022/03/12 08:21:46;;;;;;;14.82;8.80;;;9.10;99.90;;;;;;5042416;28;20887;-43
2022/03/12 08:24:15;;;;;;;18.83;8.57;;;9.20;99.90;;;;;;5039366;28;20032;-42
2022/03/12 08:26:43;;;;;;;17.80;9.38;;;9.20;99.90;;;;;;5044041;28;20037;-45
2022/03/12 08:29:14;;;;;;;15.82;9.40;;;9.30;99.90;;;;;;5043164;28;20102;-43
2022/03/12 08:31:41;;;;;;;16.08;8.50;;;9.30;99.90;;;;;;5042623;28;20500;-41
2022/03/12 08:34:07;;;;;;;17.15;9.23;;;9.40;99.90;;;;;;5043557;28;20063;-41
2022/03/12 08:36:33;;;;;;;15.73;9.05;;;9.40;99.90;;;;;;5044014;28;20422;-41
2022/03/12 08:38:59;;;;;;;13.52;9.05;;;9.50;99.90;;;;;;5043872;28;20036;-42
2022/03/12 08:41:25;;;;;;;16.65;8.88;;;9.50;99.90;;;;;;5043566;28;20033;-44
2022/03/12 08:43:51;;;;;;;15.60;9.30;;;9.60;99.90;;;;;;5043376;28;20029;-41
2022/03/12 08:46:18;;;;;;;15.75;8.25;;;9.70;99.90;;;;;;5043310;28;20473;-42
2022/03/12 08:48:44;;;;;;;16.90;9.15;;;9.80;99.90;;;;;;5041026;28;20040;-45
2022/03/12 08:51:09;;;;;;;14.00;8.95;;;9.80;99.90;;;;;;5038787;28;20037;-43
2022/03/12 08:53:36;;;;;;;13.85;9.07;;;9.90;99.90;;;;;;5040815;28;20033;-43
2022/03/12 08:56:03;;;;;;;13.88;7.90;;;10.00;99.90;;;;;;5038856;28;20424;-43
2022/03/12 08:58:30;;;;;;;15.73;9.15;;;10.10;99.90;;;;;;5040971;28;20159;-43
2022/03/12 09:00:57;;;;;;;13.93;9.27;;;10.20;99.90;;;;;;5056712;28;20048;-42
2022/03/12 09:03:23;;;;;;;14.73;8.55;;;10.30;99.90;;;;;;5042514;28;20025;-42
2022/03/12 09:05:50;;;;;;;14.70;9.00;;;10.30;99.90;;;;;;5042111;28;20523;-41
2022/03/12 09:08:16;;;;;;;16.20;8.82;;;10.40;99.90;;;;;;5041487;28;20130;-44
2022/03/12 09:10:46;;;;;;;14.68;8.48;;;10.40;99.90;;;;;;5041318;28;20052;-45
2022/03/12 09:13:14;;;;;;;14.27;9.43;;;10.50;99.90;;;;;;5043419;28;20068;-41
2022/03/12 09:15:41;;;;;;;13.55;8.73;;;10.60;99.90;;;;;;5041101;28;20056;-43
2022/03/12 09:18:08;;;;;;;14.70;9.02;;;10.60;99.90;;;;;;5040163;28;20037;-43
2022/03/12 09:20:37;;;;;;;12.85;7.53;;;10.60;99.90;;;;;;5040325;28;20126;-42
2022/03/12 09:23:03;;;;;;;13.18;8.00;;;10.70;99.90;;;;;;5040885;28;20037;-41
2022/03/12 09:25:28;;;;;;;14.43;8.23;;;10.70;99.90;;;;;;5041535;28;20029;-45
2022/03/12 09:27:54;;;;;;;12.50;8.32;;;10.80;99.90;;;;;;5042320;28;20147;-44
2022/03/12 09:30:20;;;;;;;12.68;8.10;;;10.90;99.90;;;;;;5040337;28;20049;-42
2022/03/12 09:32:46;;;;;;;12.85;8.57;;;10.90;99.90;;;;;;5041139;28;20114;-42
2022/03/12 09:35:14;;;;;;;11.68;7.70;;;11.00;99.90;;;;;;5041577;28;20561;-43
2022/03/12 09:37:40;;;;;;;13.15;8.30;;;11.00;99.90;;;;;;5040066;28;20045;-45
2022/03/12 09:40:07;;;;;;;12.55;8.30;;;11.00;99.90;;;;;;5040466;28;20496;-45
2022/03/12 09:42:34;;;;;;;12.18;7.10;;;11.00;99.90;;;;;;5041222;28;20067;-41
2022/03/12 09:45:02;;;;;;;16.73;8.68;;;11.00;99.90;;;;;;5040707;28;20043;-46
2022/03/12 09:47:28;;;;;;;15.07;7.57;;;11.10;99.90;;;;;;5041415;28;20033;-44
2022/03/12 09:49:54;;;;;;;12.77;8.23;;;11.10;99.90;;;;;;5039435;28;20310;-43
2022/03/12 09:52:20;;;;;;;12.93;8.02;;;11.10;99.90;;;;;;5040997;28;20044;-42
2022/03/12 09:54:47;;;;;;;15.23;7.55;;;11.10;99.90;;;;;;5041236;28;21499;-45
2022/03/12 09:57:13;;;;;;;14.43;7.78;;;11.10;99.90;;;;;;5038966;28;20098;-42
2022/03/12 09:59:39;;;;;;;13.23;8.23;;;11.10;99.90;;;;;;5038941;28;20049;-40
2022/03/12 10:02:04;;;;;;;12.82;8.25;;;11.20;99.90;;;;;;5040605;28;20029;-44
2022/03/12 10:04:30;;;;;;;11.68;7.70;;;11.20;99.90;;;;;;5039421;28;20411;-42
2022/03/12 10:06:57;;;;;;;15.43;8.20;;;11.30;99.90;;;;;;5040499;28;20499;-40
2022/03/12 10:09:23;;;;;;;12.15;7.63;;;11.30;99.90;;;;;;5040799;28;20044;-42
2022/03/12 10:11:51;;;;;;;12.95;8.32;;;11.30;99.90;;;;;;5040762;28;20032;-42
2022/03/12 10:14:18;;;;;;;11.70;7.78;;;11.40;99.90;;;;;;5040469;28;20037;-40
2022/03/12 10:16:44;;;;;;;13.90;7.90;;;11.40;99.90;;;;;;5040622;28;20147;-43
2022/03/12 10:19:10;;;;;;;11.63;8.05;;;11.40;99.90;;;;;;5039861;28;20381;-43
2022/03/12 10:21:42;;;;;;;14.10;8.30;;;11.50;99.90;;;;;;5039427;28;20052;-44
2022/03/12 10:24:12;;;;;;;11.98;8.27;;;11.50;99.90;;;;;;5038792;28;20029;-42
2022/03/12 10:26:38;;;;;;;13.93;8.15;;;11.50;99.90;;;;;;5040178;28;20788;-45
2022/03/12 10:29:05;;;;;;;12.45;8.18;;;11.60;99.90;;;;;;5038010;28;20037;-40
2022/03/12 10:31:31;;;;;;;12.25;7.82;;;11.70;99.90;;;;;;5044235;28;20041;-43
2022/03/12 10:34:17;;;;;;;14.82;8.38;;;11.80;99.90;;;;;;5048619;28;20179;-43
2022/03/12 10:36:43;;;;;;;13.23;7.65;;;11.90;99.90;;;;;;5044610;28;20041;-42
2022/03/12 10:39:10;;;;;;;11.73;7.35;;;11.90;99.90;;;;;;5042030;28;20037;-46
2022/03/12 10:41:39;;;;;;;14.48;8.27;;;12.00;99.90;;;;;;5038439;28;20132;-44
2022/03/12 10:44:05;;;;;;;12.68;8.18;;;12.00;99.90;;;;;;5045961;28;20496;-45
2022/03/12 10:46:33;;;;;;;14.45;7.97;;;12.00;99.90;;;;;;5049439;28;20037;-46
2022/03/12 10:48:59;;;;;;;15.20;7.72;;;12.10;99.90;;;;;;5049284;28;20394;-42
2022/03/12 10:51:46;;;;;;;11.52;7.10;;;12.20;99.90;;;;;;5048132;28;20041;-42
2022/03/12 10:54:16;;;;;;;14.32;7.68;;;12.20;99.90;;;;;;5048105;28;20037;-42
2022/03/12 10:56:47;;;;;;;12.02;7.63;;;12.20;99.90;;;;;;5047784;28;20031;-42
2022/03/12 10:59:19;;;;;;;11.20;7.50;;;12.30;99.90;;;;;;5048925;28;20068;-45
2022/03/12 11:01:48;;;;;;;11.02;7.32;;;12.50;99.90;;;;;;5046096;28;20060;-45
2022/03/12 11:04:26;;;;;;;13.70;7.65;;;12.50;99.90;;;;;;5045820;28;20086;-45
2022/03/12 11:06:56;;;;;;;12.73;7.47;;;12.70;99.90;;;;;;5042893;28;20099;-44
2022/03/12 11:09:39;;;;;;;13.02;7.50;;;12.70;99.90;;;;;;5041753;28;20557;-43
2022/03/12 11:12:30;;;;;;;13.57;7.28;;;12.90;99.90;;;;;;5047794;28;20562;-43
2022/03/12 11:15:05;;;;;;;13.18;7.38;;;13.00;99.90;;;;;;5047473;28;20146;-42
2022/03/12 11:17:48;;;;;;;11.50;7.40;;;13.10;99.90;;;;;;5046265;28;20041;-42
2022/03/12 11:20:23;;;;;;;11.75;6.78;;;13.10;99.90;;;;;;5046790;28;20051;-42
2022/03/12 11:23:17;;;;;;;11.07;6.55;;;13.00;99.90;;;;;;5048709;28;20032;-47
2022/03/12 11:26:05;;;;;;;13.63;7.25;;;13.00;99.90;;;;;;5037060;28;20120;-43
2022/03/12 11:28:35;;;;;;;10.13;6.03;;;13.00;99.90;;;;;;5048590;28;20044;-42
2022/03/12 11:31:01;;;;;;;10.20;6.53;;;13.10;99.90;;;;;;5049207;28;20104;-43
2022/03/12 11:33:27;;;;;;;10.38;6.72;;;13.00;99.90;;;;;;5045546;28;20397;-43
2022/03/12 11:36:02;;;;;;;11.90;6.28;;;12.80;99.90;;;;;;5046739;28;20045;-41
2022/03/12 11:38:28;;;;;;;11.35;6.35;;;12.80;99.90;;;;;;5048341;28;20045;-41
2022/03/12 11:41:04;;;;;;;11.52;6.35;;;12.80;99.90;;;;;;5045535;28;20068;-43
2022/03/12 11:43:36;;;;;;;10.35;6.43;;;13.00;99.90;;;;;;5044539;28;20044;-40
2022/03/12 11:46:04;;;;;;;11.02;6.68;;;12.90;99.90;;;;;;5048121;28;20132;-43
2022/03/12 11:48:31;;;;;;;11.80;6.95;;;12.90;99.90;;;;;;5040204;28;20123;-45
2022/03/12 11:51:00;;;;;;;10.93;6.55;;;13.00;99.90;;;;;;5044051;28;20135;-46
2022/03/12 11:53:26;;;;;;;13.65;6.28;;;13.10;99.90;;;;;;5047143;28;20041;-41
2022/03/12 11:55:52;;;;;;;12.48;6.60;;;13.00;99.90;;;;;;5051904;28;20073;-42
2022/03/12 11:58:19;;;;;;;11.60;6.15;;;13.10;99.90;;;;;;5040497;28;20128;-41
2022/03/12 12:00:48;;;;;;;9.35;6.30;;;13.10;99.90;;;;;;5042755;28;20075;-44
2022/03/12 12:03:15;;;;;;;9.18;6.28;;;13.10;99.90;;;;;;5044340;28;20365;-43
2022/03/12 12:05:43;;;;;;;11.50;6.03;;;13.10;99.90;;;;;;5044500;28;20033;-42
2022/03/12 12:08:13;;;;;;;10.55;6.78;;;13.20;99.90;;;;;;5038550;28;20087;-41
2022/03/12 12:10:43;;;;;;;11.65;6.85;;;13.20;99.90;;;;;;5040595;28;20033;-42
2022/03/12 12:13:13;;;;;;;11.30;6.35;;;13.20;99.90;;;;;;5040478;28;20041;-42
2022/03/12 12:15:41;;;;;;;13.25;6.95;;;13.20;99.90;;;;;;5040543;28;20072;-42
2022/03/12 12:18:09;;;;;;;11.63;6.22;;;13.30;99.90;;;;;;5037469;28;20120;-42
2022/03/12 12:20:36;;;;;;;10.85;5.55;;;13.30;99.90;;;;;;5040449;28;20090;-42
2022/03/12 12:23:03;;;;;;;10.63;5.97;;;13.30;99.90;;;;;;5043097;28;20032;-41
2022/03/12 12:25:34;;;;;;;11.80;5.85;;;13.40;99.90;;;;;;5042298;28;20029;-44
2022/03/12 12:28:12;;;;;;;12.73;6.30;;;13.40;99.90;;;;;;5042626;28;20057;-40
2022/03/12 12:30:42;;;;;;;11.68;6.15;;;13.30;99.90;;;;;;5041420;28;20041;-41
2022/03/12 12:33:18;;;;;;;9.63;6.35;;;13.70;99.90;;;;;;5024341;28;20060;-41
2022/03/12 12:35:47;;;;;;;10.63;5.90;;;14.10;99.90;;;;;;5042673;28;21213;-43
2022/03/12 12:38:14;;;;;;;11.35;6.32;;;14.40;99.90;;;;;;5041874;28;20033;-42
2022/03/12 12:40:48;;;;;;;10.75;6.28;;;14.70;99.90;;;;;;5043458;28;20044;-42
2022/03/12 12:43:21;;;;;;;;;;;14.60;99.90;;;;;;5043057;28;20111;-45
2022/03/12 12:45:53;;;;;;;11.02;5.47;;;14.90;99.90;;;;;;5040534;28;19921;-46
2022/03/12 12:48:38;;;;;;;10.48;5.35;;;14.90;99.90;;;;;;5040952;28;20532;-43
2022/03/12 12:51:17;;;;;;;10.07;5.65;;;14.80;99.90;;;;;;5040481;28;20132;-42